EST,Max TemperatureF,Mean TemperatureF,Min TemperatureF,Max Dew PointF,MeanDew PointF,Min DewpointF,Max Humidity, Mean Humidity, Min Humidity, Max Sea Level PressureIn, Mean Sea Level PressureIn, Min Sea Level PressureIn, Max VisibilityMiles, Mean VisibilityMiles, Min VisibilityMiles, Max Wind SpeedMPH, Mean Wind SpeedMPH, Max Gust SpeedMPH,PrecipitationIn, CloudCover, Events, WindDirDegrees
2012-11-1,52,43,33,38,32,26,92,67,41,29.87,29.82,29.77,10,10,10,23,11,28,0.00,5,,278
2012-11-2,49,42,35,32,30,29,82,68,53,30.13,30.01,29.86,10,10,10,18,8,23,0.00,5,,314
2012-11-3,44,37,29,33,30,28,92,75,57,30.23,30.18,30.13,10,10,10,12,4,13,0.00,6,,4
2012-11-4,42,34,26,30,28,25,92,74,55,30.24,30.21,30.17,10,10,10,10,4,15,0.00,6,,353
2012-11-5,44,33,21,28,25,19,100,79,57,30.24,30.20,30.17,10,10,10,12,4,13,0.00,1,,71
2012-11-6,47,36,24,32,28,22,92,73,53,30.15,30.05,29.95,10,10,6,13,5,15,0.00,3,,108
2012-11-7,51,40,29,36,31,26,96,71,46,30.17,30.05,29.94,10,8,1,13,5,17,0.00,5,,56
2012-11-8,52,39,25,35,30,23,92,71,50,30.26,30.21,30.17,10,8,4,14,4,17,0.00,2,,237
2012-11-9,61,44,27,43,36,27,100,74,47,30.22,30.16,30.07,10,6,2,16,6,20,T,3,Thunderstorm,161
2012-11-10,69,60,51,49,44,40,72,60,47,30.14,30.09,30.03,10,10,10,21,11,24,0.00,6,,191
2012-11-11,68,59,49,47,43,38,74,58,42,30.15,30.06,29.96,10,10,10,31,17,38,0.00,5,,181
2012-11-12,61,47,32,54,37,25,100,76,51,30.36,30.10,29.94,10,7,1,29,15,37,0.53,7,Rain-Snow,250
2012-11-13,39,33,26,26,23,20,92,72,52,30.56,30.48,30.37,10,10,10,16,5,20,0.00,3,,277
2012-11-14,40,31,21,28,25,19,92,76,59,30.59,30.53,30.45,10,10,10,12,4,14,0.00,5,,87
2012-11-15,45,34,22,31,27,23,100,77,53,30.45,30.40,30.36,10,8,2,5,1,9,0.00,3,Fog,92
2012-11-16,51,37,22,33,26,19,100,70,39,30.53,30.48,30.41,10,7,2,6,0,9,0.00,0,,-1
2012-11-17,53,39,24,34,29,22,100,75,50,30.63,30.56,30.51,10,9,6,8,3,12,0.00,2,,86
2012-11-18,54,41,28,36,32,27,100,73,46,30.53,30.47,30.39,10,7,2,9,5,9,0.00,5,Fog,75
2012-11-19,59,44,28,37,32,27,100,70,40,30.40,30.31,30.18,10,10,7,6,1,7,0.00,7,,106
2012-11-20,56,48,40,43,39,34,86,71,55,30.18,30.14,30.08,10,10,7,9,3,12,T,8,,227
2012-11-21,58,45,31,45,37,30,100,81,62,30.27,30.22,30.18,9,3,0,9,2,12,0.00,1,Fog,224
2012-11-22,62,47,32,46,39,33,100,75,49,30.21,30.09,29.88,10,6,0,25,12,31,T,4,Fog-Rain,192
2012-11-23,55,42,29,50,32,20,96,80,63,30.16,29.98,29.85,10,9,5,36,21,45,0.06,7,Rain-Snow,257
2012-11-24,30,29,28,22,21,19,75,72,69,30.23,30.17,30.08,10,10,9,21,13,24,T,8,Snow,254
2012-11-25,44,36,27,28,24,20,81,65,49,30.10,29.97,29.89,10,10,10,18,9,24,0.00,7,,240
2012-11-26,41,33,25,30,27,23,92,78,64,30.33,30.21,30.06,10,9,2,12,4,16,0.01,7,Snow,310
2012-11-27,38,31,23,29,22,19,92,70,48,30.41,30.33,30.28,10,10,6,10,5,13,T,5,Snow,290
2012-11-28,42,33,23,25,22,19,88,69,49,30.40,30.35,30.27,10,10,10,17,8,22,0.00,2,,240
2012-11-29,48,37,25,30,27,22,85,66,46,30.37,30.30,30.21,10,10,8,20,10,23,0.00,5,,203
2012-11-30,54,42,30,35,31,26,85,66,46,30.20,30.17,30.12,10,10,10,13,5,17,0.00,6,,167